sensor_id;sensor_type;location;lat;lon;timestamp;P1;durP1;ratioP1;P2;durP2;ratioP2
66609;SDS011;53468;48.276;14.416;2023-02-02T00:02:08;7.65;;;2.00;;
66609;SDS011;53468;48.276;14.416;2023-02-02T00:07:10;7.32;;;2.35;;
66609;SDS011;53468;48.276;14.416;2023-02-02T00:12:12;5.60;;;2.17;;
66609;SDS011;53468;48.276;14.416;2023-02-02T00:17:15;16.55;;;3.20;;
66609;SDS011;53468;48.276;14.416;2023-02-02T00:22:17;7.30;;;1.80;;
66609;SDS011;53468;48.276;14.416;2023-02-02T00:27:19;6.43;;;2.25;;
66609;SDS011;53468;48.276;14.416;2023-02-02T00:32:23;9.18;;;2.38;;
66609;SDS011;53468;48.276;14.416;2023-02-02T00:37:25;7.47;;;3.35;;
66609;SDS011;53468;48.276;14.416;2023-02-02T00:42:27;5.18;;;2.42;;
66609;SDS011;53468;48.276;14.416;2023-02-02T00:47:30;5.82;;;2.65;;
66609;SDS011;53468;48.276;14.416;2023-02-02T00:52:32;10.60;;;3.17;;
66609;SDS011;53468;48.276;14.416;2023-02-02T00:57:34;8.70;;;2.95;;
66609;SDS011;53468;48.276;14.416;2023-02-02T01:02:38;4.70;;;2.70;;
66609;SDS011;53468;48.276;14.416;2023-02-02T01:07:40;7.72;;;2.35;;
66609;SDS011;53468;48.276;14.416;2023-02-02T01:12:43;5.97;;;2.45;;
66609;SDS011;53468;48.276;14.416;2023-02-02T01:17:47;9.60;;;3.35;;
66609;SDS011;53468;48.276;14.416;2023-02-02T01:22:50;7.68;;;2.28;;
66609;SDS011;53468;48.276;14.416;2023-02-02T01:27:52;4.32;;;2.85;;
66609;SDS011;53468;48.276;14.416;2023-02-02T01:32:56;6.00;;;2.25;;
66609;SDS011;53468;48.276;14.416;2023-02-02T01:37:58;14.45;;;3.90;;
66609;SDS011;53468;48.276;14.416;2023-02-02T01:43:00;12.80;;;3.80;;
66609;SDS011;53468;48.276;14.416;2023-02-02T01:48:04;5.93;;;2.38;;
66609;SDS011;53468;48.276;14.416;2023-02-02T01:53:06;6.40;;;3.42;;
66609;SDS011;53468;48.276;14.416;2023-02-02T01:58:09;6.30;;;2.90;;
66609;SDS011;53468;48.276;14.416;2023-02-02T02:03:16;11.75;;;2.58;;
66609;SDS011;53468;48.276;14.416;2023-02-02T02:08:21;8.38;;;3.03;;
66609;SDS011;53468;48.276;14.416;2023-02-02T02:13:26;5.05;;;2.30;;
66609;SDS011;53468;48.276;14.416;2023-02-02T02:18:46;8.25;;;2.15;;
66609;SDS011;53468;48.276;14.416;2023-02-02T02:35:22;5.97;;;1.35;;
66609;SDS011;53468;48.276;14.416;2023-02-02T02:40:33;1.27;;;0.40;;
66609;SDS011;53468;48.276;14.416;2023-02-02T02:45:38;3.10;;;0.30;;
66609;SDS011;53468;48.276;14.416;2023-02-02T02:50:42;0.10;;;0.10;;
66609;SDS011;53468;48.276;14.416;2023-02-02T02:55:45;0.47;;;0.28;;
66609;SDS011;53468;48.276;14.416;2023-02-02T03:00:53;0.10;;;0.10;;
66609;SDS011;53468;48.276;14.416;2023-02-02T03:06:07;1.10;;;0.20;;
66609;SDS011;53468;48.276;14.416;2023-02-02T03:11:14;0.05;;;0.00;;
66609;SDS011;53468;48.276;14.416;2023-02-02T03:16:17;0.55;;;0.10;;
66609;SDS011;53468;48.276;14.416;2023-02-02T03:21:20;0.90;;;0.10;;
66609;SDS011;53468;48.276;14.416;2023-02-02T03:26:23;2.15;;;0.52;;
66609;SDS011;53468;48.276;14.416;2023-02-02T03:31:25;0.47;;;0.30;;
66609;SDS011;53468;48.276;14.416;2023-02-02T03:36:30;3.95;;;1.48;;
66609;SDS011;53468;48.276;14.416;2023-02-02T03:41:32;2.70;;;1.20;;
66609;SDS011;53468;48.276;14.416;2023-02-02T03:46:33;4.05;;;1.48;;
66609;SDS011;53468;48.276;14.416;2023-02-02T03:51:37;1.95;;;0.50;;
66609;SDS011;53468;48.276;14.416;2023-02-02T03:56:39;2.10;;;0.77;;
66609;SDS011;53468;48.276;14.416;2023-02-02T04:01:41;2.88;;;1.02;;
66609;SDS011;53468;48.276;14.416;2023-02-02T04:06:45;3.45;;;1.48;;
66609;SDS011;53468;48.276;14.416;2023-02-02T04:11:48;6.60;;;2.75;;
66609;SDS011;53468;48.276;14.416;2023-02-02T04:16:50;6.32;;;3.42;;
66609;SDS011;53468;48.276;14.416;2023-02-02T04:21:53;5.68;;;3.45;;
66609;SDS011;53468;48.276;14.416;2023-02-02T04:26:55;6.90;;;4.10;;
66609;SDS011;53468;48.276;14.416;2023-02-02T04:31:57;14.40;;;7.53;;
66609;SDS011;53468;48.276;14.416;2023-02-02T04:37:01;12.60;;;7.13;;
66609;SDS011;53468;48.276;14.416;2023-02-02T04:42:03;18.42;;;5.43;;
66609;SDS011;53468;48.276;14.416;2023-02-02T04:47:05;7.97;;;2.10;;
66609;SDS011;53468;48.276;14.416;2023-02-02T04:52:08;2.75;;;1.10;;
66609;SDS011;53468;48.276;14.416;2023-02-02T04:57:11;2.55;;;1.17;;
66609;SDS011;53468;48.276;14.416;2023-02-02T05:02:13;5.00;;;1.30;;
66609;SDS011;53468;48.276;14.416;2023-02-02T05:07:17;1.75;;;0.98;;
66609;SDS011;53468;48.276;14.416;2023-02-02T05:12:19;2.05;;;1.02;;
66609;SDS011;53468;48.276;14.416;2023-02-02T05:17:21;2.17;;;1.15;;
66609;SDS011;53468;48.276;14.416;2023-02-02T05:22:24;8.73;;;2.60;;
66609;SDS011;53468;48.276;14.416;2023-02-02T05:27:26;6.40;;;2.75;;
66609;SDS011;53468;48.276;14.416;2023-02-02T05:32:28;2.40;;;1.33;;
66609;SDS011;53468;48.276;14.416;2023-02-02T05:37:32;3.63;;;1.25;;
66609;SDS011;53468;48.276;14.416;2023-02-02T05:42:34;1.92;;;1.10;;
66609;SDS011;53468;48.276;14.416;2023-02-02T05:47:36;4.07;;;1.67;;
66609;SDS011;53468;48.276;14.416;2023-02-02T05:52:40;5.03;;;2.72;;
66609;SDS011;53468;48.276;14.416;2023-02-02T05:57:45;2.80;;;1.55;;
66609;SDS011;53468;48.276;14.416;2023-02-02T06:02:47;10.35;;;3.28;;
66609;SDS011;53468;48.276;14.416;2023-02-02T06:07:51;6.55;;;3.33;;
66609;SDS011;53468;48.276;14.416;2023-02-02T06:12:53;7.03;;;3.28;;
66609;SDS011;53468;48.276;14.416;2023-02-02T06:17:55;4.45;;;2.35;;
66609;SDS011;53468;48.276;14.416;2023-02-02T06:23:00;8.95;;;2.30;;
66609;SDS011;53468;48.276;14.416;2023-02-02T06:28:02;8.25;;;2.92;;
66609;SDS011;53468;48.276;14.416;2023-02-02T06:33:05;4.25;;;1.40;;
66609;SDS011;53468;48.276;14.416;2023-02-02T06:38:08;4.78;;;1.48;;
66609;SDS011;53468;48.276;14.416;2023-02-02T06:43:11;5.07;;;2.15;;
66609;SDS011;53468;48.276;14.416;2023-02-02T06:48:14;5.13;;;1.70;;
66609;SDS011;53468;48.276;14.416;2023-02-02T06:53:18;10.40;;;3.75;;
66609;SDS011;53468;48.276;14.416;2023-02-02T06:58:22;9.63;;;4.53;;
66609;SDS011;53468;48.276;14.416;2023-02-02T07:03:24;13.30;;;3.25;;
66609;SDS011;53468;48.276;14.416;2023-02-02T07:08:28;7.68;;;2.65;;
66609;SDS011;53468;48.276;14.416;2023-02-02T07:13:30;6.63;;;2.85;;
66609;SDS011;53468;48.276;14.416;2023-02-02T07:18:32;13.32;;;4.22;;
66609;SDS011;53468;48.276;14.416;2023-02-02T07:23:37;8.57;;;4.55;;
66609;SDS011;53468;48.276;14.416;2023-02-02T07:28:39;8.38;;;3.78;;
66609;SDS011;53468;48.276;14.416;2023-02-02T07:33:44;10.30;;;3.85;;
66609;SDS011;53468;48.276;14.416;2023-02-02T07:38:49;8.73;;;3.30;;
66609;SDS011;53468;48.276;14.416;2023-02-02T07:43:56;4.47;;;2.58;;
66609;SDS011;53468;48.276;14.416;2023-02-02T07:48:58;10.02;;;4.20;;
66609;SDS011;53468;48.276;14.416;2023-02-02T07:54:02;7.82;;;4.05;;
66609;SDS011;53468;48.276;14.416;2023-02-02T07:59:04;8.30;;;3.55;;
66609;SDS011;53468;48.276;14.416;2023-02-02T08:04:06;8.27;;;3.25;;
66609;SDS011;53468;48.276;14.416;2023-02-02T08:09:09;5.65;;;3.10;;
66609;SDS011;53468;48.276;14.416;2023-02-02T08:14:12;7.65;;;4.10;;
66609;SDS011;53468;48.276;14.416;2023-02-02T08:19:14;10.15;;;3.55;;
66609;SDS011;53468;48.276;14.416;2023-02-02T08:24:17;6.45;;;3.28;;
66609;SDS011;53468;48.276;14.416;2023-02-02T08:29:19;7.43;;;3.42;;
66609;SDS011;53468;48.276;14.416;2023-02-02T08:34:21;11.43;;;3.42;;
66609;SDS011;53468;48.276;14.416;2023-02-02T08:39:25;7.78;;;3.25;;
66609;SDS011;53468;48.276;14.416;2023-02-02T08:44:27;7.20;;;3.80;;
66609;SDS011;53468;48.276;14.416;2023-02-02T08:49:29;8.38;;;2.63;;
66609;SDS011;53468;48.276;14.416;2023-02-02T08:54:33;6.53;;;2.25;;
66609;SDS011;53468;48.276;14.416;2023-02-02T08:59:35;7.93;;;2.70;;
66609;SDS011;53468;48.276;14.416;2023-02-02T09:04:37;6.85;;;3.08;;
66609;SDS011;53468;48.276;14.416;2023-02-02T09:09:43;7.95;;;3.22;;
66609;SDS011;53468;48.276;14.416;2023-02-02T09:14:44;5.82;;;2.90;;
66609;SDS011;53468;48.276;14.416;2023-02-02T09:19:47;7.10;;;2.47;;
66609;SDS011;53468;48.276;14.416;2023-02-02T09:24:51;5.60;;;3.00;;
66609;SDS011;53468;48.276;14.416;2023-02-02T09:29:53;7.45;;;3.38;;
66609;SDS011;53468;48.276;14.416;2023-02-02T09:34:55;5.85;;;2.80;;
66609;SDS011;53468;48.276;14.416;2023-02-02T09:40:00;10.95;;;3.17;;
66609;SDS011;53468;48.276;14.416;2023-02-02T09:45:06;6.88;;;3.35;;
66609;SDS011;53468;48.276;14.416;2023-02-02T09:50:13;7.63;;;3.20;;
66609;SDS011;53468;48.276;14.416;2023-02-02T09:55:23;6.80;;;2.85;;
66609;SDS011;53468;48.276;14.416;2023-02-02T10:00:30;9.07;;;2.70;;
66609;SDS011;53468;48.276;14.416;2023-02-02T10:05:43;7.18;;;2.20;;
66609;SDS011;53468;48.276;14.416;2023-02-02T10:10:50;5.63;;;2.60;;
66609;SDS011;53468;48.276;14.416;2023-02-02T10:15:55;1.60;;;0.85;;
66609;SDS011;53468;48.276;14.416;2023-02-02T10:21:03;1.88;;;0.80;;
66609;SDS011;53468;48.276;14.416;2023-02-02T10:26:12;3.03;;;1.23;;
66609;SDS011;53468;48.276;14.416;2023-02-02T10:31:26;3.93;;;1.27;;
66609;SDS011;53468;48.276;14.416;2023-02-02T10:36:43;3.88;;;1.63;;
66609;SDS011;53468;48.276;14.416;2023-02-02T10:42:03;4.05;;;1.80;;
66609;SDS011;53468;48.276;14.416;2023-02-02T10:47:15;5.28;;;1.17;;
66609;SDS011;53468;48.276;14.416;2023-02-02T10:52:24;1.90;;;0.80;;
66609;SDS011;53468;48.276;14.416;2023-02-02T10:57:36;4.38;;;1.42;;
66609;SDS011;53468;48.276;14.416;2023-02-02T11:02:47;0.90;;;0.50;;
66609;SDS011;53468;48.276;14.416;2023-02-02T11:07:50;2.97;;;0.90;;
66609;SDS011;53468;48.276;14.416;2023-02-02T11:12:56;4.22;;;1.88;;
66609;SDS011;53468;48.276;14.416;2023-02-02T11:18:11;4.50;;;1.58;;
66609;SDS011;53468;48.276;14.416;2023-02-02T11:23:16;6.72;;;2.35;;
66609;SDS011;53468;48.276;14.416;2023-02-02T11:28:21;9.95;;;2.65;;
66609;SDS011;53468;48.276;14.416;2023-02-02T11:33:29;5.18;;;1.85;;
66609;SDS011;53468;48.276;14.416;2023-02-02T11:38:33;7.18;;;2.25;;
66609;SDS011;53468;48.276;14.416;2023-02-02T11:43:37;4.43;;;1.80;;
66609;SDS011;53468;48.276;14.416;2023-02-02T11:48:46;3.53;;;1.65;;
66609;SDS011;53468;48.276;14.416;2023-02-02T11:53:59;7.05;;;2.60;;
66609;SDS011;53468;48.276;14.416;2023-02-02T11:59:08;6.47;;;2.92;;
66609;SDS011;53468;48.276;14.416;2023-02-02T12:04:29;5.93;;;2.25;;
66609;SDS011;53468;48.276;14.416;2023-02-02T12:09:33;4.95;;;2.08;;
66609;SDS011;53468;48.276;14.416;2023-02-02T12:14:40;7.78;;;3.10;;
66609;SDS011;53468;48.276;14.416;2023-02-02T12:19:54;4.75;;;2.30;;
66609;SDS011;53468;48.276;14.416;2023-02-02T12:25:10;2.80;;;0.65;;
66609;SDS011;53468;48.276;14.416;2023-02-02T12:30:45;1.70;;;0.82;;
66609;SDS011;53468;48.276;14.416;2023-02-02T12:36:03;5.40;;;1.35;;
66609;SDS011;53468;48.276;14.416;2023-02-02T12:41:25;0.82;;;0.40;;
66609;SDS011;53468;48.276;14.416;2023-02-02T12:46:41;3.67;;;1.20;;
66609;SDS011;53468;48.276;14.416;2023-02-02T12:52:02;9.25;;;3.13;;
66609;SDS011;53468;48.276;14.416;2023-02-02T12:57:17;6.47;;;2.45;;
66609;SDS011;53468;48.276;14.416;2023-02-02T13:02:29;0.98;;;0.60;;
66609;SDS011;53468;48.276;14.416;2023-02-02T13:07:36;1.35;;;0.90;;
66609;SDS011;53468;48.276;14.416;2023-02-02T13:12:42;3.50;;;1.52;;
66609;SDS011;53468;48.276;14.416;2023-02-02T13:17:53;1.75;;;1.05;;
66609;SDS011;53468;48.276;14.416;2023-02-02T13:22:59;3.15;;;1.83;;
66609;SDS011;53468;48.276;14.416;2023-02-02T13:28:06;3.17;;;2.10;;
66609;SDS011;53468;48.276;14.416;2023-02-02T13:33:19;4.63;;;2.25;;
66609;SDS011;53468;48.276;14.416;2023-02-02T13:38:27;5.60;;;2.00;;
66609;SDS011;53468;48.276;14.416;2023-02-02T13:43:32;3.15;;;1.67;;
66609;SDS011;53468;48.276;14.416;2023-02-02T13:48:49;2.50;;;1.85;;
66609;SDS011;53468;48.276;14.416;2023-02-02T13:54:13;7.10;;;4.32;;
66609;SDS011;53468;48.276;14.416;2023-02-02T13:59:51;5.38;;;3.28;;
66609;SDS011;53468;48.276;14.416;2023-02-02T14:05:03;4.57;;;2.80;;
66609;SDS011;53468;48.276;14.416;2023-02-02T14:10:19;10.60;;;6.85;;
66609;SDS011;53468;48.276;14.416;2023-02-02T14:15:35;13.07;;;7.45;;
66609;SDS011;53468;48.276;14.416;2023-02-02T14:20:45;7.53;;;4.63;;
66609;SDS011;53468;48.276;14.416;2023-02-02T14:25:52;11.32;;;7.35;;
66609;SDS011;53468;48.276;14.416;2023-02-02T14:36:56;7.07;;;4.25;;
66609;SDS011;53468;48.276;14.416;2023-02-02T14:42:12;10.52;;;7.50;;
66609;SDS011;53468;48.276;14.416;2023-02-02T14:47:46;11.40;;;6.95;;
66609;SDS011;53468;48.276;14.416;2023-02-02T14:58:04;14.43;;;8.57;;
66609;SDS011;53468;48.276;14.416;2023-02-02T15:03:31;14.70;;;9.40;;
66609;SDS011;53468;48.276;14.416;2023-02-02T15:08:37;9.48;;;5.38;;
66609;SDS011;53468;48.276;14.416;2023-02-02T15:13:41;6.38;;;3.47;;
66609;SDS011;53468;48.276;14.416;2023-02-02T15:18:52;6.95;;;4.10;;
66609;SDS011;53468;48.276;14.416;2023-02-02T15:24:03;10.43;;;4.15;;
66609;SDS011;53468;48.276;14.416;2023-02-02T15:29:12;14.60;;;6.00;;
66609;SDS011;53468;48.276;14.416;2023-02-02T15:34:21;8.23;;;4.78;;
66609;SDS011;53468;48.276;14.416;2023-02-02T15:39:29;13.57;;;5.13;;
66609;SDS011;53468;48.276;14.416;2023-02-02T15:44:33;10.85;;;5.30;;
66609;SDS011;53468;48.276;14.416;2023-02-02T15:49:39;9.18;;;4.78;;
66609;SDS011;53468;48.276;14.416;2023-02-02T15:54:50;7.13;;;4.10;;
66609;SDS011;53468;48.276;14.416;2023-02-02T15:59:55;6.50;;;3.85;;
66609;SDS011;53468;48.276;14.416;2023-02-02T16:04:57;7.32;;;4.68;;
66609;SDS011;53468;48.276;14.416;2023-02-02T16:10:04;10.05;;;6.32;;
66609;SDS011;53468;48.276;14.416;2023-02-02T16:15:09;7.13;;;3.72;;
66609;SDS011;53468;48.276;14.416;2023-02-02T16:20:20;9.27;;;4.63;;
66609;SDS011;53468;48.276;14.416;2023-02-02T16:25:24;6.28;;;4.47;;
66609;SDS011;53468;48.276;14.416;2023-02-02T16:30:28;7.43;;;3.95;;
66609;SDS011;53468;48.276;14.416;2023-02-02T16:35:32;9.23;;;4.50;;
66609;SDS011;53468;48.276;14.416;2023-02-02T16:40:37;8.30;;;4.32;;
66609;SDS011;53468;48.276;14.416;2023-02-02T16:45:42;8.68;;;4.82;;
66609;SDS011;53468;48.276;14.416;2023-02-02T16:50:47;5.85;;;3.85;;
66609;SDS011;53468;48.276;14.416;2023-02-02T16:56:06;7.00;;;3.75;;
66609;SDS011;53468;48.276;14.416;2023-02-02T17:01:09;6.75;;;4.15;;
66609;SDS011;53468;48.276;14.416;2023-02-02T17:06:12;7.13;;;4.07;;
66609;SDS011;53468;48.276;14.416;2023-02-02T17:11:21;6.25;;;3.67;;
66609;SDS011;53468;48.276;14.416;2023-02-02T17:16:24;9.00;;;5.22;;
66609;SDS011;53468;48.276;14.416;2023-02-02T17:21:26;8.05;;;5.18;;
66609;SDS011;53468;48.276;14.416;2023-02-02T17:26:34;6.53;;;4.85;;
66609;SDS011;53468;48.276;14.416;2023-02-02T17:31:37;8.75;;;4.63;;
66609;SDS011;53468;48.276;14.416;2023-02-02T17:36:39;9.13;;;5.43;;
66609;SDS011;53468;48.276;14.416;2023-02-02T17:41:42;8.40;;;4.15;;
66609;SDS011;53468;48.276;14.416;2023-02-02T17:46:47;9.25;;;5.03;;
66609;SDS011;53468;48.276;14.416;2023-02-02T17:51:49;11.70;;;4.78;;
66609;SDS011;53468;48.276;14.416;2023-02-02T17:56:53;7.72;;;4.40;;
66609;SDS011;53468;48.276;14.416;2023-02-02T18:01:55;10.82;;;5.90;;
66609;SDS011;53468;48.276;14.416;2023-02-02T18:06:57;11.45;;;6.63;;
66609;SDS011;53468;48.276;14.416;2023-02-02T18:12:01;13.80;;;8.40;;
66609;SDS011;53468;48.276;14.416;2023-02-02T18:17:03;12.55;;;7.68;;
66609;SDS011;53468;48.276;14.416;2023-02-02T18:22:07;12.45;;;7.90;;
66609;SDS011;53468;48.276;14.416;2023-02-02T18:27:10;14.00;;;7.05;;
66609;SDS011;53468;48.276;14.416;2023-02-02T18:32:12;13.55;;;6.82;;
66609;SDS011;53468;48.276;14.416;2023-02-02T18:37:15;9.82;;;5.38;;
66609;SDS011;53468;48.276;14.416;2023-02-02T18:42:19;9.75;;;5.57;;
66609;SDS011;53468;48.276;14.416;2023-02-02T18:47:21;7.82;;;4.65;;
66609;SDS011;53468;48.276;14.416;2023-02-02T18:52:23;9.68;;;5.25;;
66609;SDS011;53468;48.276;14.416;2023-02-02T18:57:27;11.38;;;5.85;;
66609;SDS011;53468;48.276;14.416;2023-02-02T19:02:29;12.20;;;6.88;;
66609;SDS011;53468;48.276;14.416;2023-02-02T19:07:31;12.40;;;7.00;;
66609;SDS011;53468;48.276;14.416;2023-02-02T19:12:53;16.27;;;7.32;;
66609;SDS011;53468;48.276;14.416;2023-02-02T19:17:57;8.82;;;4.93;;
66609;SDS011;53468;48.276;14.416;2023-02-02T19:23:01;6.53;;;4.25;;
66609;SDS011;53468;48.276;14.416;2023-02-02T19:28:11;9.13;;;4.93;;
66609;SDS011;53468;48.276;14.416;2023-02-02T19:33:19;9.23;;;4.03;;
66609;SDS011;53468;48.276;14.416;2023-02-02T19:38:22;7.68;;;5.05;;
66609;SDS011;53468;48.276;14.416;2023-02-02T19:43:31;8.00;;;4.78;;
66609;SDS011;53468;48.276;14.416;2023-02-02T19:48:35;7.90;;;4.93;;
66609;SDS011;53468;48.276;14.416;2023-02-02T19:53:38;5.78;;;3.72;;
66609;SDS011;53468;48.276;14.416;2023-02-02T19:58:42;8.60;;;4.72;;
66609;SDS011;53468;48.276;14.416;2023-02-02T20:03:45;7.68;;;4.38;;
66609;SDS011;53468;48.276;14.416;2023-02-02T20:08:47;7.57;;;4.45;;
66609;SDS011;53468;48.276;14.416;2023-02-02T20:13:51;7.15;;;4.20;;
66609;SDS011;53468;48.276;14.416;2023-02-02T20:18:53;7.88;;;4.90;;
66609;SDS011;53468;48.276;14.416;2023-02-02T20:23:57;9.02;;;4.47;;
66609;SDS011;53468;48.276;14.416;2023-02-02T20:29:16;8.02;;;4.60;;
66609;SDS011;53468;48.276;14.416;2023-02-02T20:34:22;9.90;;;4.38;;
66609;SDS011;53468;48.276;14.416;2023-02-02T20:39:27;9.35;;;3.75;;
66609;SDS011;53468;48.276;14.416;2023-02-02T20:44:34;7.97;;;3.55;;
66609;SDS011;53468;48.276;14.416;2023-02-02T20:49:37;5.22;;;3.20;;
66609;SDS011;53468;48.276;14.416;2023-02-02T20:54:39;4.72;;;3.00;;
66609;SDS011;53468;48.276;14.416;2023-02-02T20:59:43;4.85;;;2.88;;
66609;SDS011;53468;48.276;14.416;2023-02-02T21:04:45;4.93;;;3.22;;
66609;SDS011;53468;48.276;14.416;2023-02-02T21:09:49;4.10;;;2.47;;
66609;SDS011;53468;48.276;14.416;2023-02-02T21:14:52;5.20;;;2.30;;
66609;SDS011;53468;48.276;14.416;2023-02-02T21:19:54;4.43;;;2.30;;
66609;SDS011;53468;48.276;14.416;2023-02-02T21:24:56;4.18;;;2.08;;
66609;SDS011;53468;48.276;14.416;2023-02-02T21:30:00;3.83;;;2.40;;
66609;SDS011;53468;48.276;14.416;2023-02-02T21:35:03;4.93;;;2.53;;
66609;SDS011;53468;48.276;14.416;2023-02-02T21:40:08;5.57;;;2.83;;
66609;SDS011;53468;48.276;14.416;2023-02-02T21:50:38;4.15;;;2.65;;
66609;SDS011;53468;48.276;14.416;2023-02-02T21:55:42;4.63;;;2.60;;
66609;SDS011;53468;48.276;14.416;2023-02-02T22:00:46;3.70;;;2.22;;
66609;SDS011;53468;48.276;14.416;2023-02-02T22:05:49;4.82;;;2.67;;
66609;SDS011;53468;48.276;14.416;2023-02-02T22:10:51;4.53;;;2.60;;
66609;SDS011;53468;48.276;14.416;2023-02-02T22:15:54;3.53;;;2.38;;
66609;SDS011;53468;48.276;14.416;2023-02-02T22:20:56;5.75;;;2.70;;
66609;SDS011;53468;48.276;14.416;2023-02-02T22:26:00;5.38;;;2.72;;
66609;SDS011;53468;48.276;14.416;2023-02-02T22:31:04;3.65;;;2.13;;
66609;SDS011;53468;48.276;14.416;2023-02-02T22:36:06;3.90;;;2.35;;
66609;SDS011;53468;48.276;14.416;2023-02-02T22:41:08;5.50;;;2.63;;
66609;SDS011;53468;48.276;14.416;2023-02-02T22:46:12;3.03;;;2.10;;
66609;SDS011;53468;48.276;14.416;2023-02-02T22:51:14;4.57;;;2.70;;
66609;SDS011;53468;48.276;14.416;2023-02-02T22:56:16;5.00;;;2.60;;
66609;SDS011;53468;48.276;14.416;2023-02-02T23:01:19;4.70;;;2.60;;
66609;SDS011;53468;48.276;14.416;2023-02-02T23:06:21;4.93;;;2.88;;
66609;SDS011;53468;48.276;14.416;2023-02-02T23:11:24;4.10;;;2.67;;
66609;SDS011;53468;48.276;14.416;2023-02-02T23:16:28;5.07;;;2.47;;
66609;SDS011;53468;48.276;14.416;2023-02-02T23:21:30;4.30;;;2.42;;
66609;SDS011;53468;48.276;14.416;2023-02-02T23:26:32;5.45;;;2.70;;
66609;SDS011;53468;48.276;14.416;2023-02-02T23:31:36;5.75;;;3.13;;
66609;SDS011;53468;48.276;14.416;2023-02-02T23:36:38;4.47;;;3.15;;
66609;SDS011;53468;48.276;14.416;2023-02-02T23:41:40;6.68;;;3.50;;
66609;SDS011;53468;48.276;14.416;2023-02-02T23:46:43;10.82;;;3.55;;
66609;SDS011;53468;48.276;14.416;2023-02-02T23:51:46;7.65;;;4.22;;
66609;SDS011;53468;48.276;14.416;2023-02-02T23:56:49;8.00;;;4.10;;
